sensor_id;sensor_type;location;lat;lon;timestamp;pressure;altitude;pressure_sealevel;temperature
73685;BMP280;61985;51.070;14.064;2023-06-22T00:01:21;99006.22;;;18.38
73685;BMP280;61985;51.070;14.064;2023-06-22T00:03:47;99002.47;;;18.21
73685;BMP280;61985;51.070;14.064;2023-06-22T00:06:13;99000.78;;;18.08
73685;BMP280;61985;51.070;14.064;2023-06-22T00:08:38;99002.28;;;18.09
73685;BMP280;61985;51.070;14.064;2023-06-22T00:11:03;99003.59;;;18.14
73685;BMP280;61985;51.070;14.064;2023-06-22T00:13:29;99006.53;;;18.10
73685;BMP280;61985;51.070;14.064;2023-06-22T00:15:54;99003.88;;;18.01
73685;BMP280;61985;51.070;14.064;2023-06-22T00:18:19;98994.38;;;17.96
73685;BMP280;61985;51.070;14.064;2023-06-22T00:20:45;99000.09;;;17.84
73685;BMP280;61985;51.070;14.064;2023-06-22T00:23:10;98995.13;;;17.97
73685;BMP280;61985;51.070;14.064;2023-06-22T00:25:37;99006.31;;;17.99
73685;BMP280;61985;51.070;14.064;2023-06-22T00:28:03;99012.69;;;17.81
73685;BMP280;61985;51.070;14.064;2023-06-22T00:30:30;99018.44;;;17.83
73685;BMP280;61985;51.070;14.064;2023-06-22T00:32:55;99014.97;;;17.83
73685;BMP280;61985;51.070;14.064;2023-06-22T00:35:21;99015.88;;;17.80
73685;BMP280;61985;51.070;14.064;2023-06-22T00:37:46;99021.28;;;17.89
73685;BMP280;61985;51.070;14.064;2023-06-22T00:40:11;99025.78;;;17.92
73685;BMP280;61985;51.070;14.064;2023-06-22T00:42:40;99034.38;;;17.75
73685;BMP280;61985;51.070;14.064;2023-06-22T00:45:06;99036.44;;;17.66
73685;BMP280;61985;51.070;14.064;2023-06-22T00:47:33;99033.19;;;17.52
73685;BMP280;61985;51.070;14.064;2023-06-22T00:49:59;99038.19;;;17.54
73685;BMP280;61985;51.070;14.064;2023-06-22T00:52:25;99034.00;;;17.68
73685;BMP280;61985;51.070;14.064;2023-06-22T00:54:59;99034.66;;;17.63
73685;BMP280;61985;51.070;14.064;2023-06-22T00:57:26;99031.59;;;17.61
73685;BMP280;61985;51.070;14.064;2023-06-22T00:59:53;99037.91;;;17.52
73685;BMP280;61985;51.070;14.064;2023-06-22T01:02:19;99030.66;;;17.49
73685;BMP280;61985;51.070;14.064;2023-06-22T01:04:44;99033.72;;;17.42
73685;BMP280;61985;51.070;14.064;2023-06-22T01:12:16;99028.84;;;17.22
73685;BMP280;61985;51.070;14.064;2023-06-22T01:14:47;99018.31;;;17.39
73685;BMP280;61985;51.070;14.064;2023-06-22T01:17:19;99016.97;;;17.34
73685;BMP280;61985;51.070;14.064;2023-06-22T01:19:47;99022.94;;;17.47
73685;BMP280;61985;51.070;14.064;2023-06-22T01:22:18;99026.63;;;17.59
73685;BMP280;61985;51.070;14.064;2023-06-22T01:24:57;99027.97;;;17.64
73685;BMP280;61985;51.070;14.064;2023-06-22T01:30:02;99036.00;;;17.43
73685;BMP280;61985;51.070;14.064;2023-06-22T01:32:31;99030.34;;;17.47
73685;BMP280;61985;51.070;14.064;2023-06-22T01:35:00;99025.47;;;17.51
73685;BMP280;61985;51.070;14.064;2023-06-22T01:37:29;99021.72;;;17.48
73685;BMP280;61985;51.070;14.064;2023-06-22T01:39:57;99028.06;;;17.45
73685;BMP280;61985;51.070;14.064;2023-06-22T01:42:24;99019.44;;;17.47
73685;BMP280;61985;51.070;14.064;2023-06-22T01:44:52;99022.75;;;17.51
73685;BMP280;61985;51.070;14.064;2023-06-22T01:47:18;99017.59;;;17.53
73685;BMP280;61985;51.070;14.064;2023-06-22T01:49:44;99018.19;;;17.57
73685;BMP280;61985;51.070;14.064;2023-06-22T01:52:11;99011.97;;;17.57
73685;BMP280;61985;51.070;14.064;2023-06-22T01:54:39;99012.59;;;17.51
73685;BMP280;61985;51.070;14.064;2023-06-22T01:57:04;99008.31;;;17.35
73685;BMP280;61985;51.070;14.064;2023-06-22T01:59:36;99011.56;;;17.25
73685;BMP280;61985;51.070;14.064;2023-06-22T02:02:07;99009.44;;;17.29
73685;BMP280;61985;51.070;14.064;2023-06-22T02:04:58;99004.16;;;17.25
73685;BMP280;61985;51.070;14.064;2023-06-22T02:07:28;99000.28;;;17.17
73685;BMP280;61985;51.070;14.064;2023-06-22T02:09:56;99000.88;;;17.21
73685;BMP280;61985;51.070;14.064;2023-06-22T02:12:24;99003.81;;;17.32
73685;BMP280;61985;51.070;14.064;2023-06-22T02:14:52;99001.75;;;17.27
73685;BMP280;61985;51.070;14.064;2023-06-22T02:17:19;99014.16;;;16.95
73685;BMP280;61985;51.070;14.064;2023-06-22T02:19:44;99007.19;;;16.94
73685;BMP280;61985;51.070;14.064;2023-06-22T02:22:10;99001.13;;;16.99
73685;BMP280;61985;51.070;14.064;2023-06-22T02:24:35;99004.69;;;16.81
73685;BMP280;61985;51.070;14.064;2023-06-22T02:27:01;99007.38;;;16.90
73685;BMP280;61985;51.070;14.064;2023-06-22T02:29:28;99008.81;;;16.77
73685;BMP280;61985;51.070;14.064;2023-06-22T02:31:53;99006.19;;;16.91
73685;BMP280;61985;51.070;14.064;2023-06-22T02:34:19;99006.44;;;17.03
73685;BMP280;61985;51.070;14.064;2023-06-22T02:36:45;98993.41;;;17.07
73685;BMP280;61985;51.070;14.064;2023-06-22T02:39:18;98992.19;;;16.99
73685;BMP280;61985;51.070;14.064;2023-06-22T02:41:44;98989.97;;;16.97
73685;BMP280;61985;51.070;14.064;2023-06-22T02:44:09;98987.63;;;16.81
73685;BMP280;61985;51.070;14.064;2023-06-22T02:46:35;99001.28;;;16.71
73685;BMP280;61985;51.070;14.064;2023-06-22T02:49:01;99007.16;;;16.70
73685;BMP280;61985;51.070;14.064;2023-06-22T02:51:26;99009.25;;;16.75
73685;BMP280;61985;51.070;14.064;2023-06-22T02:53:51;99022.56;;;16.73
73685;BMP280;61985;51.070;14.064;2023-06-22T02:56:22;99023.78;;;16.72
73685;BMP280;61985;51.070;14.064;2023-06-22T02:58:50;99020.63;;;16.64
73685;BMP280;61985;51.070;14.064;2023-06-22T03:01:16;99025.63;;;16.57
73685;BMP280;61985;51.070;14.064;2023-06-22T03:03:41;99031.22;;;16.62
73685;BMP280;61985;51.070;14.064;2023-06-22T03:06:06;99034.41;;;16.51
73685;BMP280;61985;51.070;14.064;2023-06-22T03:08:32;99040.72;;;16.76
73685;BMP280;61985;51.070;14.064;2023-06-22T03:10:57;99031.16;;;16.81
73685;BMP280;61985;51.070;14.064;2023-06-22T03:13:23;99038.88;;;16.82
73685;BMP280;61985;51.070;14.064;2023-06-22T03:15:48;99026.75;;;16.83
73685;BMP280;61985;51.070;14.064;2023-06-22T03:18:13;99018.22;;;16.66
73685;BMP280;61985;51.070;14.064;2023-06-22T03:20:40;99023.06;;;16.71
73685;BMP280;61985;51.070;14.064;2023-06-22T03:23:06;99023.78;;;16.72
73685;BMP280;61985;51.070;14.064;2023-06-22T03:25:31;99028.31;;;16.75
73685;BMP280;61985;51.070;14.064;2023-06-22T03:27:56;99012.25;;;16.44
73685;BMP280;61985;51.070;14.064;2023-06-22T03:30:22;99008.22;;;16.63
73685;BMP280;61985;51.070;14.064;2023-06-22T03:32:47;99006.09;;;16.67
73685;BMP280;61985;51.070;14.064;2023-06-22T03:35:12;98996.56;;;16.72
73685;BMP280;61985;51.070;14.064;2023-06-22T03:37:39;98985.28;;;16.98
73685;BMP280;61985;51.070;14.064;2023-06-22T03:40:05;98972.38;;;17.07
73685;BMP280;61985;51.070;14.064;2023-06-22T03:42:30;98969.25;;;17.14
73685;BMP280;61985;51.070;14.064;2023-06-22T03:44:56;98970.13;;;17.21
73685;BMP280;61985;51.070;14.064;2023-06-22T03:47:22;98976.84;;;17.34
73685;BMP280;61985;51.070;14.064;2023-06-22T03:49:47;98968.91;;;17.46
73685;BMP280;61985;51.070;14.064;2023-06-22T03:52:13;98976.66;;;17.62
73685;BMP280;61985;51.070;14.064;2023-06-22T03:54:38;98979.09;;;17.60
73685;BMP280;61985;51.070;14.064;2023-06-22T03:57:04;98987.47;;;17.57
73685;BMP280;61985;51.070;14.064;2023-06-22T03:59:29;98984.28;;;17.73
73685;BMP280;61985;51.070;14.064;2023-06-22T04:01:54;98978.94;;;17.79
73685;BMP280;61985;51.070;14.064;2023-06-22T04:04:20;98982.34;;;17.88
73685;BMP280;61985;51.070;14.064;2023-06-22T04:06:46;98989.13;;;18.08
73685;BMP280;61985;51.070;14.064;2023-06-22T04:09:11;98992.88;;;18.10
73685;BMP280;61985;51.070;14.064;2023-06-22T04:11:37;99000.41;;;18.15
73685;BMP280;61985;51.070;14.064;2023-06-22T04:14:02;98990.59;;;18.24
73685;BMP280;61985;51.070;14.064;2023-06-22T04:16:28;98983.28;;;18.30
73685;BMP280;61985;51.070;14.064;2023-06-22T04:18:53;98992.31;;;18.36
73685;BMP280;61985;51.070;14.064;2023-06-22T04:21:19;99004.88;;;18.48
73685;BMP280;61985;51.070;14.064;2023-06-22T04:23:47;99001.91;;;18.46
73685;BMP280;61985;51.070;14.064;2023-06-22T04:26:13;99007.91;;;18.50
73685;BMP280;61985;51.070;14.064;2023-06-22T04:28:39;99007.72;;;18.54
73685;BMP280;61985;51.070;14.064;2023-06-22T04:31:05;99011.91;;;18.70
73685;BMP280;61985;51.070;14.064;2023-06-22T04:33:30;99013.13;;;18.84
73685;BMP280;61985;51.070;14.064;2023-06-22T04:35:56;99020.34;;;18.87
73685;BMP280;61985;51.070;14.064;2023-06-22T04:38:22;99018.78;;;19.00
73685;BMP280;61985;51.070;14.064;2023-06-22T04:40:48;99019.28;;;18.99
73685;BMP280;61985;51.070;14.064;2023-06-22T04:43:14;99017.03;;;18.97
73685;BMP280;61985;51.070;14.064;2023-06-22T04:45:39;99015.28;;;18.79
73685;BMP280;61985;51.070;14.064;2023-06-22T04:48:05;99013.22;;;18.89
73685;BMP280;61985;51.070;14.064;2023-06-22T04:50:31;99013.53;;;18.97
73685;BMP280;61985;51.070;14.064;2023-06-22T04:52:56;99019.63;;;19.07
73685;BMP280;61985;51.070;14.064;2023-06-22T04:55:21;99018.88;;;19.47
73685;BMP280;61985;51.070;14.064;2023-06-22T04:57:48;99026.84;;;19.71
73685;BMP280;61985;51.070;14.064;2023-06-22T05:00:20;99032.41;;;19.82
73685;BMP280;61985;51.070;14.064;2023-06-22T05:02:47;99045.38;;;19.87
73685;BMP280;61985;51.070;14.064;2023-06-22T05:05:13;99044.75;;;19.98
73685;BMP280;61985;51.070;14.064;2023-06-22T05:07:42;99048.59;;;20.12
73685;BMP280;61985;51.070;14.064;2023-06-22T05:10:12;99046.31;;;20.31
73685;BMP280;61985;51.070;14.064;2023-06-22T05:12:38;99055.94;;;20.53
73685;BMP280;61985;51.070;14.064;2023-06-22T05:15:04;99063.88;;;20.88
73685;BMP280;61985;51.070;14.064;2023-06-22T05:17:30;99068.88;;;20.95
73685;BMP280;61985;51.070;14.064;2023-06-22T05:19:55;99069.72;;;21.12
73685;BMP280;61985;51.070;14.064;2023-06-22T05:22:21;99082.22;;;21.25
73685;BMP280;61985;51.070;14.064;2023-06-22T05:24:46;99082.03;;;21.40
73685;BMP280;61985;51.070;14.064;2023-06-22T05:27:12;99094.53;;;21.46
73685;BMP280;61985;51.070;14.064;2023-06-22T05:29:37;99095.72;;;21.34
73685;BMP280;61985;51.070;14.064;2023-06-22T05:32:03;99099.47;;;21.31
73685;BMP280;61985;51.070;14.064;2023-06-22T05:34:28;99093.00;;;21.40
73685;BMP280;61985;51.070;14.064;2023-06-22T05:36:54;99097.59;;;21.60
73685;BMP280;61985;51.070;14.064;2023-06-22T05:39:19;99103.16;;;21.88
73685;BMP280;61985;51.070;14.064;2023-06-22T05:41:45;99091.72;;;22.12
73685;BMP280;61985;51.070;14.064;2023-06-22T05:44:11;99091.44;;;22.21
73685;BMP280;61985;51.070;14.064;2023-06-22T05:46:36;99099.94;;;22.23
73685;BMP280;61985;51.070;14.064;2023-06-22T05:56:45;99078.16;;;22.76
73685;BMP280;61985;51.070;14.064;2023-06-22T05:59:10;99072.66;;;22.81
73685;BMP280;61985;51.070;14.064;2023-06-22T06:01:35;99065.16;;;22.87
73685;BMP280;61985;51.070;14.064;2023-06-22T06:04:02;99076.41;;;22.89
73685;BMP280;61985;51.070;14.064;2023-06-22T06:06:30;99074.91;;;22.88
73685;BMP280;61985;51.070;14.064;2023-06-22T06:08:55;99068.88;;;23.01
73685;BMP280;61985;51.070;14.064;2023-06-22T06:11:30;99076.03;;;23.21
73685;BMP280;61985;51.070;14.064;2023-06-22T06:13:55;99071.03;;;23.25
73685;BMP280;61985;51.070;14.064;2023-06-22T06:16:22;99075.75;;;23.25
73685;BMP280;61985;51.070;14.064;2023-06-22T06:18:47;99065.97;;;23.35
73685;BMP280;61985;51.070;14.064;2023-06-22T06:21:14;99072.44;;;23.43
73685;BMP280;61985;51.070;14.064;2023-06-22T06:23:40;99059.81;;;23.65
73685;BMP280;61985;51.070;14.064;2023-06-22T06:26:05;99068.28;;;23.67
73685;BMP280;61985;51.070;14.064;2023-06-22T06:28:32;99057.88;;;23.90
73685;BMP280;61985;51.070;14.064;2023-06-22T06:30:58;99064.72;;;24.13
73685;BMP280;61985;51.070;14.064;2023-06-22T06:33:23;99057.91;;;24.14
73685;BMP280;61985;51.070;14.064;2023-06-22T06:35:49;99056.34;;;24.25
73685;BMP280;61985;51.070;14.064;2023-06-22T06:38:14;99035.78;;;24.50
73685;BMP280;61985;51.070;14.064;2023-06-22T06:40:40;99035.53;;;24.73
73685;BMP280;61985;51.070;14.064;2023-06-22T06:43:05;99033.91;;;24.83
73685;BMP280;61985;51.070;14.064;2023-06-22T06:45:31;99008.44;;;24.77
73685;BMP280;61985;51.070;14.064;2023-06-22T06:47:58;98989.34;;;24.79
73685;BMP280;61985;51.070;14.064;2023-06-22T06:50:23;98955.34;;;24.57
73685;BMP280;61985;51.070;14.064;2023-06-22T06:52:49;98952.56;;;24.38
73685;BMP280;61985;51.070;14.064;2023-06-22T06:55:15;98974.97;;;24.48
73685;BMP280;61985;51.070;14.064;2023-06-22T12:33:47;98788.09;;;30.31
73685;BMP280;61985;51.070;14.064;2023-06-22T12:36:13;98782.84;;;30.35
73685;BMP280;61985;51.070;14.064;2023-06-22T12:38:38;98784.25;;;30.86
73685;BMP280;61985;51.070;14.064;2023-06-22T12:41:04;98781.56;;;31.13
73685;BMP280;61985;51.070;14.064;2023-06-22T12:43:29;98784.47;;;31.50
73685;BMP280;61985;51.070;14.064;2023-06-22T12:51:05;98770.63;;;31.96
73685;BMP280;61985;51.070;14.064;2023-06-22T12:53:34;98769.34;;;32.54
73685;BMP280;61985;51.070;14.064;2023-06-22T12:55:59;98770.06;;;32.64
73685;BMP280;61985;51.070;14.064;2023-06-22T12:58:25;98776.38;;;33.03
73685;BMP280;61985;51.070;14.064;2023-06-22T13:00:50;98768.75;;;32.65
73685;BMP280;61985;51.070;14.064;2023-06-22T13:03:15;98775.34;;;32.79
73685;BMP280;61985;51.070;14.064;2023-06-22T13:05:46;98775.13;;;32.19
73685;BMP280;61985;51.070;14.064;2023-06-22T13:08:12;98766.16;;;32.20
73685;BMP280;61985;51.070;14.064;2023-06-22T13:10:38;98767.06;;;30.97
73685;BMP280;61985;51.070;14.064;2023-06-22T13:13:04;98762.31;;;30.90
73685;BMP280;61985;51.070;14.064;2023-06-22T13:15:37;98768.03;;;31.27
73685;BMP280;61985;51.070;14.064;2023-06-22T13:20:40;98750.28;;;31.76
73685;BMP280;61985;51.070;14.064;2023-06-22T13:25:47;98736.31;;;32.03
73685;BMP280;61985;51.070;14.064;2023-06-22T13:28:41;98741.44;;;31.97
73685;BMP280;61985;51.070;14.064;2023-06-22T13:38:06;98728.63;;;32.31
73685;BMP280;61985;51.070;14.064;2023-06-22T13:40:31;98730.88;;;31.96
73685;BMP280;61985;51.070;14.064;2023-06-22T13:42:56;98731.41;;;32.31
73685;BMP280;61985;51.070;14.064;2023-06-22T13:45:22;98725.97;;;32.14
73685;BMP280;61985;51.070;14.064;2023-06-22T13:47:47;98724.19;;;32.28
73685;BMP280;61985;51.070;14.064;2023-06-22T13:50:13;98726.28;;;32.47
73685;BMP280;61985;51.070;14.064;2023-06-22T13:52:39;98725.84;;;32.21
73685;BMP280;61985;51.070;14.064;2023-06-22T13:55:05;98708.69;;;32.54
73685;BMP280;61985;51.070;14.064;2023-06-22T13:57:32;98704.88;;;32.40
73685;BMP280;61985;51.070;14.064;2023-06-22T13:59:58;98701.72;;;31.97
73685;BMP280;61985;51.070;14.064;2023-06-22T14:02:26;98690.97;;;31.93
73685;BMP280;61985;51.070;14.064;2023-06-22T14:04:51;98691.31;;;32.17
73685;BMP280;61985;51.070;14.064;2023-06-22T14:07:16;98684.59;;;32.39
73685;BMP280;61985;51.070;14.064;2023-06-22T14:09:42;98686.81;;;32.60
73685;BMP280;61985;51.070;14.064;2023-06-22T14:12:07;98677.09;;;32.71
73685;BMP280;61985;51.070;14.064;2023-06-22T14:14:33;98691.81;;;32.62
73685;BMP280;61985;51.070;14.064;2023-06-22T14:16:59;98681.81;;;32.59
73685;BMP280;61985;51.070;14.064;2023-06-22T14:19:24;98683.50;;;31.86
73685;BMP280;61985;51.070;14.064;2023-06-22T14:21:50;98686.16;;;32.03
73685;BMP280;61985;51.070;14.064;2023-06-22T14:24:16;98687.13;;;32.35
73685;BMP280;61985;51.070;14.064;2023-06-22T14:26:41;98685.34;;;32.49
73685;BMP280;61985;51.070;14.064;2023-06-22T14:29:07;98675.94;;;32.74
73685;BMP280;61985;51.070;14.064;2023-06-22T14:34:39;98677.72;;;32.69
73685;BMP280;61985;51.070;14.064;2023-06-22T14:37:06;98665.50;;;32.74
73685;BMP280;61985;51.070;14.064;2023-06-22T14:39:33;98661.13;;;32.62
73685;BMP280;61985;51.070;14.064;2023-06-22T14:42:00;98643.63;;;32.71
73685;BMP280;61985;51.070;14.064;2023-06-22T15:56:03;98562.94;;;31.29
73685;BMP280;61985;51.070;14.064;2023-06-22T15:58:29;98558.41;;;31.34
73685;BMP280;61985;51.070;14.064;2023-06-22T16:00:54;98549.34;;;31.43
73685;BMP280;61985;51.070;14.064;2023-06-22T16:03:21;98545.69;;;31.50
73685;BMP280;61985;51.070;14.064;2023-06-22T16:05:46;98547.72;;;31.03
73685;BMP280;61985;51.070;14.064;2023-06-22T16:08:11;98532.16;;;30.91
73685;BMP280;61985;51.070;14.064;2023-06-22T16:10:39;98531.81;;;30.77
73685;BMP280;61985;51.070;14.064;2023-06-22T16:13:04;98538.06;;;30.77
73685;BMP280;61985;51.070;14.064;2023-06-22T16:15:29;98529.31;;;30.54
73685;BMP280;61985;51.070;14.064;2023-06-22T16:17:55;98531.38;;;30.36
73685;BMP280;61985;51.070;14.064;2023-06-22T16:20:20;98539.78;;;30.11
73685;BMP280;61985;51.070;14.064;2023-06-22T16:22:46;98544.53;;;30.01
73685;BMP280;61985;51.070;14.064;2023-06-22T16:25:12;98524.06;;;29.71
73685;BMP280;61985;51.070;14.064;2023-06-22T16:27:38;98535.16;;;29.54
73685;BMP280;61985;51.070;14.064;2023-06-22T16:30:05;98536.59;;;29.55
73685;BMP280;61985;51.070;14.064;2023-06-22T16:32:31;98527.50;;;29.37
73685;BMP280;61985;51.070;14.064;2023-06-22T16:34:56;98532.72;;;29.33
73685;BMP280;61985;51.070;14.064;2023-06-22T16:37:22;98535.94;;;29.22
73685;BMP280;61985;51.070;14.064;2023-06-22T16:39:50;98526.38;;;29.07
73685;BMP280;61985;51.070;14.064;2023-06-22T16:42:15;98537.19;;;28.95
73685;BMP280;61985;51.070;14.064;2023-06-22T16:44:42;98532.81;;;28.85
73685;BMP280;61985;51.070;14.064;2023-06-22T16:47:07;98531.78;;;28.65
73685;BMP280;61985;51.070;14.064;2023-06-22T16:49:33;98532.84;;;28.77
73685;BMP280;61985;51.070;14.064;2023-06-22T16:52:01;98527.75;;;28.58
73685;BMP280;61985;51.070;14.064;2023-06-22T16:54:29;98534.41;;;28.63
73685;BMP280;61985;51.070;14.064;2023-06-22T16:56:54;98522.91;;;28.66
73685;BMP280;61985;51.070;14.064;2023-06-22T16:59:20;98517.00;;;28.70
73685;BMP280;61985;51.070;14.064;2023-06-22T17:01:54;98510.50;;;28.75
73685;BMP280;61985;51.070;14.064;2023-06-22T17:04:24;98517.69;;;28.78
73685;BMP280;61985;51.070;14.064;2023-06-22T17:06:58;98509.38;;;28.78
73685;BMP280;61985;51.070;14.064;2023-06-22T17:09:25;98502.81;;;28.58
73685;BMP280;61985;51.070;14.064;2023-06-22T17:11:53;98502.69;;;28.33
73685;BMP280;61985;51.070;14.064;2023-06-22T17:14:18;98491.06;;;28.27
73685;BMP280;61985;51.070;14.064;2023-06-22T17:16:44;98492.75;;;28.22
73685;BMP280;61985;51.070;14.064;2023-06-22T17:19:12;98494.41;;;28.25
73685;BMP280;61985;51.070;14.064;2023-06-22T17:21:38;98487.06;;;28.20
73685;BMP280;61985;51.070;14.064;2023-06-22T17:24:18;98469.72;;;28.12
73685;BMP280;61985;51.070;14.064;2023-06-22T17:27:02;98473.63;;;28.01
73685;BMP280;61985;51.070;14.064;2023-06-22T17:29:29;98465.69;;;27.90
73685;BMP280;61985;51.070;14.064;2023-06-22T17:32:03;98463.31;;;27.79
73685;BMP280;61985;51.070;14.064;2023-06-22T17:34:30;98457.41;;;27.75
73685;BMP280;61985;51.070;14.064;2023-06-22T17:36:58;98454.47;;;27.73
73685;BMP280;61985;51.070;14.064;2023-06-22T17:39:27;98448.56;;;27.69
73685;BMP280;61985;51.070;14.064;2023-06-22T17:41:56;98447.09;;;27.60
73685;BMP280;61985;51.070;14.064;2023-06-22T17:44:22;98458.00;;;27.50
73685;BMP280;61985;51.070;14.064;2023-06-22T17:46:52;98462.63;;;27.48
73685;BMP280;61985;51.070;14.064;2023-06-22T17:49:18;98453.38;;;27.45
73685;BMP280;61985;51.070;14.064;2023-06-22T17:51:44;98459.28;;;27.42
73685;BMP280;61985;51.070;14.064;2023-06-22T17:54:10;98450.81;;;27.32
73685;BMP280;61985;51.070;14.064;2023-06-22T17:56:36;98439.91;;;27.11
73685;BMP280;61985;51.070;14.064;2023-06-22T17:59:02;98430.66;;;27.08
73685;BMP280;61985;51.070;14.064;2023-06-22T18:04:00;98424.94;;;26.91
73685;BMP280;61985;51.070;14.064;2023-06-22T18:06:27;98427.66;;;26.83
73685;BMP280;61985;51.070;14.064;2023-06-22T18:08:59;98428.03;;;26.72
73685;BMP280;61985;51.070;14.064;2023-06-22T18:11:31;98418.59;;;26.60
73685;BMP280;61985;51.070;14.064;2023-06-22T18:13:56;98400.34;;;26.57
73685;BMP280;61985;51.070;14.064;2023-06-22T18:16:22;98398.44;;;26.44
73685;BMP280;61985;51.070;14.064;2023-06-22T18:18:50;98394.19;;;26.35
73685;BMP280;61985;51.070;14.064;2023-06-22T18:21:17;98396.56;;;26.31
73685;BMP280;61985;51.070;14.064;2023-06-22T20:22:41;98331.16;;;24.83
73685;BMP280;61985;51.070;14.064;2023-06-22T20:25:06;98315.91;;;24.82
73685;BMP280;61985;51.070;14.064;2023-06-22T20:27:32;98309.47;;;24.79
73685;BMP280;61985;51.070;14.064;2023-06-22T22:49:33;98259.44;;;22.68
73685;BMP280;61985;51.070;14.064;2023-06-22T22:51:58;98274.88;;;22.71
73685;BMP280;61985;51.070;14.064;2023-06-22T22:54:23;98310.50;;;22.77
73685;BMP280;61985;51.070;14.064;2023-06-22T22:56:50;98324.19;;;22.82
73685;BMP280;61985;51.070;14.064;2023-06-22T22:59:15;98347.78;;;22.72
73685;BMP280;61985;51.070;14.064;2023-06-22T23:01:41;98355.81;;;22.70
73685;BMP280;61985;51.070;14.064;2023-06-22T23:04:06;98337.38;;;22.65
73685;BMP280;61985;51.070;14.064;2023-06-22T23:06:31;98318.25;;;22.59
73685;BMP280;61985;51.070;14.064;2023-06-22T23:08:57;98322.56;;;22.55
73685;BMP280;61985;51.070;14.064;2023-06-22T23:11:23;98325.97;;;22.61
73685;BMP280;61985;51.070;14.064;2023-06-22T23:13:49;98344.97;;;22.59
73685;BMP280;61985;51.070;14.064;2023-06-22T23:16:14;98365.00;;;22.54
73685;BMP280;61985;51.070;14.064;2023-06-22T23:18:41;98383.31;;;22.45
73685;BMP280;61985;51.070;14.064;2023-06-22T23:21:06;98391.63;;;22.59
73685;BMP280;61985;51.070;14.064;2023-06-22T23:23:32;98528.22;;;22.53
73685;BMP280;61985;51.070;14.064;2023-06-22T23:25:58;98589.88;;;21.91
73685;BMP280;61985;51.070;14.064;2023-06-22T23:28:23;98572.13;;;20.76
73685;BMP280;61985;51.070;14.064;2023-06-22T23:30:49;98585.53;;;20.06
73685;BMP280;61985;51.070;14.064;2023-06-22T23:33:14;98576.25;;;19.75
73685;BMP280;61985;51.070;14.064;2023-06-22T23:35:40;98521.97;;;19.45
73685;BMP280;61985;51.070;14.064;2023-06-22T23:38:06;98490.59;;;19.13
73685;BMP280;61985;51.070;14.064;2023-06-22T23:40:35;98511.59;;;18.95
73685;BMP280;61985;51.070;14.064;2023-06-22T23:43:02;98497.34;;;18.86
73685;BMP280;61985;51.070;14.064;2023-06-22T23:45:28;98508.00;;;18.78
73685;BMP280;61985;51.070;14.064;2023-06-22T23:47:54;98532.06;;;18.74
73685;BMP280;61985;51.070;14.064;2023-06-22T23:50:19;98534.72;;;18.68
73685;BMP280;61985;51.070;14.064;2023-06-22T23:52:45;98534.03;;;18.73
73685;BMP280;61985;51.070;14.064;2023-06-22T23:55:14;98532.53;;;18.72
73685;BMP280;61985;51.070;14.064;2023-06-22T23:57:39;98524.63;;;18.74
